createdAt,value
2018-12-09T00:00:39.487Z,88.40
2018-12-09T00:03:10.231Z,88.30
2018-12-09T00:05:40.891Z,87.40
2018-12-09T00:08:11.627Z,87.10
2018-12-09T00:10:40.262Z,86.60
2018-12-09T00:13:08.943Z,85.70
2018-12-09T00:15:39.589Z,84.90
2018-12-09T00:18:08.209Z,84.40
2018-12-09T00:20:36.590Z,83.80
2018-12-09T00:23:05.070Z,83.20
2018-12-09T00:25:33.526Z,83.00
2018-12-09T00:28:01.926Z,82.50
2018-12-09T00:30:30.314Z,82.10
2018-12-09T00:32:58.908Z,81.80
2018-12-09T00:35:27.302Z,81.90
2018-12-09T00:37:55.665Z,82.30
2018-12-09T00:40:24.016Z,83.60
2018-12-09T00:42:52.338Z,84.30
2018-12-09T00:45:20.703Z,85.20
2018-12-09T00:47:49.142Z,86.00
2018-12-09T00:50:17.510Z,86.60
2018-12-09T00:52:45.920Z,86.80
2018-12-09T00:55:14.306Z,87.20
2018-12-09T00:57:42.633Z,87.50
2018-12-09T01:00:13.020Z,88.00
2018-12-09T01:02:42.987Z,88.30
2018-12-09T01:05:11.531Z,89.20
2018-12-09T01:07:40.309Z,89.70
2018-12-09T01:10:08.851Z,90.00
2018-12-09T01:12:37.214Z,90.00
2018-12-09T01:15:06.157Z,89.90
2018-12-09T01:17:34.530Z,89.90
2018-12-09T01:20:02.999Z,89.60
2018-12-09T01:22:31.527Z,89.20
2018-12-09T01:24:59.850Z,88.60
2018-12-09T01:27:28.242Z,88.50
2018-12-09T01:29:56.609Z,88.30
2018-12-09T01:32:25.645Z,88.20
2018-12-09T01:34:54.013Z,88.10
2018-12-09T01:37:22.418Z,88.10
2018-12-09T01:39:51.079Z,87.80
2018-12-09T01:42:19.433Z,83.80
2018-12-09T01:44:47.754Z,81.90
2018-12-09T01:47:16.075Z,81.80
2018-12-09T01:49:45.682Z,81.80
2018-12-09T01:52:14.022Z,83.90
2018-12-09T01:54:42.401Z,86.10
2018-12-09T01:57:10.734Z,86.50
2018-12-09T01:59:39.184Z,87.20
2018-12-09T02:02:07.718Z,87.70
2018-12-09T02:04:36.055Z,88.30
2018-12-09T02:07:04.774Z,88.60
2018-12-09T02:09:33.115Z,89.10
2018-12-09T02:12:01.509Z,89.40
2018-12-09T02:14:30.188Z,89.70
2018-12-09T02:16:58.510Z,90.00
2018-12-09T02:19:27.171Z,90.10
2018-12-09T02:21:55.617Z,90.30
2018-12-09T02:24:24.095Z,90.50
2018-12-09T02:26:52.558Z,90.60
2018-12-09T02:29:20.957Z,90.80
2018-12-09T02:31:49.305Z,90.90
2018-12-09T02:34:17.672Z,91.00
2018-12-09T02:36:46.163Z,91.10
2018-12-09T02:39:14.509Z,91.40
2018-12-09T02:41:42.925Z,91.50
2018-12-09T02:44:11.339Z,91.50
2018-12-09T02:46:39.725Z,91.50
2018-12-09T02:49:08.067Z,91.50
2018-12-09T02:51:36.717Z,91.40
2018-12-09T02:54:05.091Z,91.20
2018-12-09T02:56:33.424Z,91.20
2018-12-09T02:59:01.773Z,91.20
2018-12-09T03:01:30.410Z,91.30
2018-12-09T03:03:58.770Z,91.30
2018-12-09T03:06:27.386Z,91.40
2018-12-09T03:08:55.725Z,91.40
